Time;durP1;ratioP1;P1;durP2;ratioP2;P2;SDS_P1;SDS_P2;PMS_P1;PMS_P2;Temp;Humidity;BMP_temperature;BMP_pressure;BME280_temperature;BME280_humidity;BME280_pressure;Samples;Min_cycle;Max_cycle;Signal;HPM_P1;HPM_P2
2022/07/06 00:02:18;;;;;;;17.98;15.00;;;;;;;18.00;100.00;63861.22;5028610;28;20429;-78
2022/07/06 00:04:45;;;;;;;20.98;15.00;;;;;;;18.06;100.00;63867.47;5017741;28;20202;-80
2022/07/06 00:07:13;;;;;;;21.25;14.95;;;;;;;18.04;100.00;63871.06;5006565;28;20225;-78
2022/07/06 00:09:40;;;;;;;18.02;15.70;;;;;;;18.03;100.00;63866.94;5006608;28;20219;-79
2022/07/06 00:12:10;;;;;;;18.30;16.35;;;;;;;17.84;100.00;63844.56;5006837;28;20246;-79
2022/07/06 00:14:37;;;;;;;21.52;17.17;;;;;;;17.91;100.00;63852.34;5006820;28;20271;-78
2022/07/06 00:17:04;;;;;;;22.15;18.15;;;;;;;17.98;100.00;63862.22;5006569;28;20227;-79
2022/07/06 00:19:31;;;;;;;20.63;15.85;;;;;;;17.92;100.00;63855.47;5007050;28;20218;-79
2022/07/06 00:21:58;;;;;;;16.08;14.43;;;;;;;17.87;100.00;63850.78;5006740;28;20276;-79
2022/07/06 00:24:25;;;;;;;17.95;14.63;;;;;;;17.95;100.00;63856.00;5007222;28;20222;-78
2022/07/06 00:26:53;;;;;;;22.25;16.63;;;;;;;17.94;100.00;63863.22;5006654;28;20441;-79
2022/07/06 00:29:21;;;;;;;19.25;15.93;;;;;;;18.10;100.00;63866.50;5006203;28;20221;-78
2022/07/06 00:31:48;;;;;;;23.33;19.40;;;;;;;17.98;100.00;63862.22;5017930;28;20214;-78
2022/07/06 00:34:15;;;;;;;21.48;17.65;;;;;;;18.02;100.00;63863.81;5025196;28;20206;-78
2022/07/06 00:36:42;;;;;;;18.55;16.55;;;;;;;18.12;100.00;63873.72;5025611;28;20218;-79
2022/07/06 00:39:09;;;;;;;20.27;17.90;;;;;;;18.16;100.00;63875.31;5025545;28;20194;-76
2022/07/06 00:41:35;;;;;;;22.52;19.58;;;;;;;18.16;100.00;63880.47;5025704;28;20221;-77
2022/07/06 00:44:08;;;;;;;24.38;18.63;;;;;;;18.20;100.00;63884.63;5025479;28;20297;-78
2022/07/06 00:46:36;;;;;;;21.58;17.83;;;;;;;18.23;100.00;63888.28;5025375;28;20222;-78
2022/07/06 00:49:03;;;;;;;25.05;19.58;;;;;;;18.28;100.00;63892.97;5026056;28;20194;-77
2022/07/06 00:51:32;;;;;;;20.33;17.85;;;;;;;18.40;100.00;63906.03;5025692;28;20413;-77
2022/07/06 00:54:01;;;;;;;22.75;19.42;;;;;;;18.42;100.00;63908.09;5026688;28;20206;-77
2022/07/06 00:56:30;;;;;;;20.67;18.40;;;;;;;18.47;100.00;63912.78;5025120;28;20272;-77
2022/07/06 00:58:57;;;;;;;24.05;20.08;;;;;;;18.51;100.00;63911.28;5025325;28;20437;-78
2022/07/06 01:01:24;;;;;;;21.33;18.67;;;;;;;18.54;100.00;63920.09;5025551;28;20257;-78
2022/07/06 01:03:52;;;;;;;23.83;18.75;;;;;;;18.63;100.00;63932.06;5025152;28;20390;-77
2022/07/06 01:06:19;;;;;;;21.52;18.90;;;;;;;18.70;100.00;63936.25;5025883;28;20236;-77
2022/07/06 01:08:47;;;;;;;21.15;17.70;;;;;;;18.74;100.00;63940.41;5025004;28;20367;-78
2022/07/06 01:11:14;;;;;;;19.13;16.98;;;;;;;18.64;100.00;63930.50;5024898;28;20237;-78
2022/07/06 01:13:42;;;;;;;20.25;17.00;;;;;;;18.57;100.00;63918.03;5024976;28;20218;-78
2022/07/06 01:16:09;;;;;;;23.58;17.33;;;;;;;18.62;100.00;63927.91;5025078;28;20229;-78
2022/07/06 01:18:37;;;;;;;23.35;16.50;;;;;;;18.66;100.00;63932.59;5025346;28;20202;-77
2022/07/06 01:21:12;;;;;;;17.35;15.48;;;;;;;18.67;100.00;63933.66;5025214;28;20217;-76
2022/07/06 01:23:41;;;;;;;20.15;14.68;;;;;;;18.61;100.00;63924.81;5024580;28;20225;-77
2022/07/06 01:26:11;;;;;;;16.85;14.52;;;;;;;18.47;100.00;63909.69;5024764;28;20226;-77
2022/07/06 01:28:38;;;;;;;16.75;14.80;;;;;;;18.53;100.00;63919.06;5024872;28;20210;-76
2022/07/06 01:31:05;;;;;;;17.20;14.63;;;;;;;18.53;100.00;63916.47;5024640;28;20221;-77
2022/07/06 01:33:33;;;;;;;19.13;15.20;;;;;;;18.56;100.00;63921.66;5024549;28;20236;-78
2022/07/06 01:36:00;;;;;;;18.08;14.43;;;;;;;18.46;100.00;63911.22;5024818;28;20218;-76
2022/07/06 01:38:28;;;;;;;17.35;14.98;;;;;;;18.39;100.00;63902.38;5024702;28;20391;-77
2022/07/06 01:40:55;;;;;;;17.92;14.88;;;;;;;18.37;100.00;63895.16;5024338;28;20280;-77
2022/07/06 01:43:22;;;;;;;17.05;15.18;;;;;;;18.30;100.00;63895.06;5023803;28;20229;-77
2022/07/06 01:45:49;;;;;;;18.83;15.52;;;;;;;18.27;100.00;63889.34;5023897;28;20218;-77
2022/07/06 01:48:16;;;;;;;15.85;14.23;;;;;;;18.20;100.00;63887.22;5024160;28;20198;-77
2022/07/06 01:50:42;;;;;;;19.63;15.38;;;;;;;18.31;100.00;63894.03;5024658;28;20269;-78
2022/07/06 01:53:10;;;;;;;18.50;13.45;;;;;;;18.26;100.00;63890.88;5025074;28;20292;-77
2022/07/06 01:55:39;;;;;;;16.40;14.00;;;;;;;18.27;100.00;63892.44;5024933;28;20245;-77
2022/07/06 01:58:05;;;;;;;16.08;14.35;;;;;;;18.28;100.00;63887.81;5024345;28;20206;-79
2022/07/06 02:00:32;;;;;;;16.98;13.65;;;;;;;18.23;100.00;63887.75;5023987;28;20220;-77
2022/07/06 02:02:59;;;;;;;18.42;13.40;;;;;;;18.18;100.00;63877.41;5024485;28;20333;-78
2022/07/06 02:05:26;;;;;;;16.80;13.63;;;;;;;18.07;100.00;63871.09;5024024;28;20222;-77
2022/07/06 02:07:53;;;;;;;14.88;13.30;;;;;;;18.00;100.00;63861.22;5024486;28;20260;-77
2022/07/06 02:10:20;;;;;;;15.10;13.45;;;;;;;17.99;100.00;63860.19;5024837;28;20414;-81
2022/07/06 02:12:49;;;;;;;20.52;15.00;;;;;;;17.88;100.00;63846.13;5024982;28;20232;-78
2022/07/06 02:15:15;;;;;;;17.98;14.15;;;;;;;18.00;100.00;63861.22;5026518;28;20256;-78
2022/07/06 02:17:42;;;;;;;18.70;14.23;;;;;;;18.02;100.00;63863.81;5028058;28;20186;-77
2022/07/06 02:20:10;;;;;;;18.10;15.13;;;;;;;17.92;100.00;63858.03;5025602;28;20198;-78
2022/07/06 02:22:37;;;;;;;16.13;13.57;;;;;;;17.82;100.00;63839.91;5026988;28;20198;-77
2022/07/06 02:25:05;;;;;;;15.95;14.07;;;;;;;17.90;100.00;63848.22;5025354;28;20202;-79
2022/07/06 02:27:32;;;;;;;16.90;13.52;;;;;;;17.86;100.00;63847.16;5024490;28;20240;-78
2022/07/06 02:30:00;;;;;;;14.32;12.82;;;;;;;17.84;100.00;63844.56;5024350;28;20209;-78
2022/07/06 02:32:27;;;;;;;14.15;12.75;;;;;;;17.85;100.00;63845.59;5023828;28;20190;-78
2022/07/06 02:34:54;;;;;;;13.93;11.52;;;;;;;17.90;100.00;63851.31;5024083;28;20204;-77
2022/07/06 02:37:21;;;;;;;14.52;12.73;;;;;;;17.92;100.00;63853.41;5023032;28;20210;-77
2022/07/06 02:39:48;;;;;;;14.20;12.70;;;;;;;17.79;100.00;63837.28;5023689;28;20217;-77
2022/07/06 02:42:15;;;;;;;14.00;12.60;;;;;;;17.68;100.00;63830.47;5023510;28;20218;-77
2022/07/06 02:44:42;;;;;;;15.13;12.15;;;;;;;17.68;100.00;63830.47;5023831;28;20241;-77
2022/07/06 02:47:10;;;;;;;13.60;10.82;;;;;;;17.57;100.00;63814.38;5023539;28;20217;-78
2022/07/06 02:49:37;;;;;;;15.38;11.90;;;;;;;17.64;100.00;63826.28;5023652;28;20198;-77
2022/07/06 02:52:04;;;;;;;13.00;11.70;;;;;;;17.50;100.00;63807.09;5023716;28;20218;-77
2022/07/06 02:54:31;;;;;;;17.38;11.80;;;;;;;17.34;100.00;63790.94;5024066;28;20198;-77
2022/07/06 02:56:58;;;;;;;12.85;11.55;;;;;;;17.36;100.00;63792.50;5027531;28;20264;-78
2022/07/06 02:59:25;;;;;;;18.33;11.15;;;;;;;17.36;100.00;63800.22;5027828;28;20556;-78
2022/07/06 03:01:52;;;;;;;14.05;11.48;;;;;;;17.40;100.00;63796.66;5027330;28;20241;-79
2022/07/06 03:04:20;;;;;;;14.68;11.18;;;;;;;17.47;100.00;63806.53;5027170;28;20231;-77
2022/07/06 03:06:47;;;;;;;12.60;11.30;;;;;;;17.47;100.00;63808.59;5027990;28;20225;-77
2022/07/06 03:09:14;;;;;;;13.27;11.90;;;;;;;17.48;100.00;63807.56;5029457;28;20274;-77
2022/07/06 03:11:41;;;;;;;13.20;11.05;;;;;;;17.50;100.00;63807.09;5027909;28;20217;-77
2022/07/06 03:14:08;;;;;;;14.57;11.07;;;;;;;17.50;100.00;63812.25;5028275;28;20202;-78
2022/07/06 03:16:35;;;;;;;12.35;10.93;;;;;;;17.54;100.00;63810.72;5029053;28;20222;-77
2022/07/06 03:19:01;;;;;;;13.90;11.60;;;;;;;17.56;100.00;63810.78;5030035;28;20401;-78
2022/07/06 03:21:30;;;;;;;13.15;11.43;;;;;;;17.61;100.00;63815.44;5034511;28;20232;-78
2022/07/06 03:23:57;;;;;;;12.70;11.40;;;;;;;17.57;100.00;63816.97;5035506;28;20229;-77
2022/07/06 03:26:24;;;;;;;12.50;11.20;;;;;;;17.62;100.00;63819.59;5032424;28;20245;-77
2022/07/06 03:28:51;;;;;;;16.50;11.40;;;;;;;17.61;100.00;63821.13;5027352;28;20194;-78
2022/07/06 03:31:18;;;;;;;13.77;11.85;;;;;;;17.63;100.00;63825.25;5027425;28;20257;-78
2022/07/06 03:33:44;;;;;;;13.05;11.35;;;;;;;17.68;100.00;63828.41;5027180;28;20194;-78
2022/07/06 03:36:15;;;;;;;13.43;11.82;;;;;;;17.66;100.00;63826.34;5028226;28;20263;-77
2022/07/06 03:38:48;;;;;;;18.08;13.32;;;;;;;17.65;100.00;63817.03;5032079;28;20278;-77
2022/07/06 03:41:18;;;;;;;16.38;12.52;;;;;;;17.52;100.00;63813.78;5031667;28;20214;-77
2022/07/06 03:43:46;;;;;;;18.58;12.80;;;;;;;17.67;100.00;63824.28;5030380;28;20252;-77
2022/07/06 03:46:17;;;;;;;16.27;12.43;;;;;;;17.70;100.00;63825.34;5031256;28;20218;-77
2022/07/06 03:48:46;;;;;;;15.60;12.38;;;;;;;17.74;100.00;63831.56;5031645;28;20194;-78
2022/07/06 03:51:14;;;;;;;17.08;12.55;;;;;;;17.75;100.00;63835.19;5031143;28;20268;-78
2022/07/06 03:53:53;;;;;;;18.88;12.70;;;;;;;17.80;100.00;63837.81;5031010;28;20198;-78
2022/07/06 03:56:32;;;;;;;16.20;13.75;;;;;;;17.93;100.00;63854.44;5031100;28;20276;-78
2022/07/06 03:59:00;;;;;;;14.60;12.70;;;;;;;17.96;100.00;63860.16;5027929;28;20244;-78
2022/07/06 04:01:28;;;;;;;14.63;12.90;;;;;;;17.94;100.00;63852.41;5026473;28;20214;-77
2022/07/06 04:03:55;;;;;;;15.95;13.20;;;;;;;17.99;100.00;63865.34;5026163;28;20233;-78
2022/07/06 04:06:23;;;;;;;14.77;12.70;;;;;;;18.04;100.00;63863.34;5025889;28;20221;-79
2022/07/06 04:08:56;;;;;;;15.88;12.68;;;;;;;18.01;100.00;63865.38;5026997;28;20194;-78
2022/07/06 04:11:23;;;;;;;15.38;13.00;;;;;;;18.11;100.00;63870.63;5027849;28;20217;-77
2022/07/06 04:13:50;;;;;;;15.02;11.85;;;;;;;18.21;100.00;63881.03;5026208;28;20201;-77
2022/07/06 04:16:17;;;;;;;14.75;11.73;;;;;;;18.11;100.00;63870.09;5025620;28;20256;-78
2022/07/06 04:18:44;;;;;;;11.52;8.98;;;;;;;18.11;100.00;63872.69;5025998;28;20194;-77
2022/07/06 04:21:10;;;;;;;7.72;6.90;;;;;;;18.08;100.00;63869.56;5026478;28;20237;-79
2022/07/06 04:23:37;;;;;;;7.30;6.60;;;;;;;18.12;100.00;63871.66;5026044;28;20257;-78
2022/07/06 04:26:06;;;;;;;9.60;7.20;;;;;;;18.32;100.00;63889.41;5026091;28;20218;-78
2022/07/06 04:28:33;;;;;;;6.97;6.38;;;;;;;18.32;100.00;63892.50;5026043;28;20229;-78
2022/07/06 04:30:59;;;;;;;7.18;6.57;;;;;;;18.40;100.00;63900.34;5025885;28;20407;-78
2022/07/06 04:33:26;;;;;;;8.50;5.90;;;;;;;18.46;100.00;63904.03;5026025;28;20240;-78
2022/07/06 04:35:53;;;;;;;7.43;6.72;;;;;;;18.55;100.00;63915.97;5026208;28;20217;-78
2022/07/06 04:38:20;;;;;;;8.70;6.45;;;;;;;18.66;100.00;63930.00;5025195;28;20217;-79
2022/07/06 04:40:47;;;;;;;6.72;6.15;;;;;;;18.76;100.00;63940.44;5025851;28;20289;-78
2022/07/06 04:43:15;;;;;;;7.78;6.80;;;;;;;18.68;100.00;63929.53;5026660;28;20260;-78
2022/07/06 04:45:42;;;;;;;6.03;5.53;;;;;;;18.70;100.00;63931.59;5026100;28;20296;-78
2022/07/06 04:48:09;;;;;;;6.18;5.57;;;;;;;18.80;100.00;63944.06;5025430;28;20476;-78
2022/07/06 04:50:36;;;;;;;8.63;5.75;;;;;;;18.63;100.00;63928.94;5026097;28;20264;-79
2022/07/06 04:53:03;;;;;;;6.72;5.65;;;;;;;18.58;100.00;63923.72;5026113;28;20222;-79
2022/07/06 04:55:30;;;;;;;7.82;5.95;;;;;;;18.69;100.00;63932.63;5026664;28;20222;-78
2022/07/06 04:57:57;;;;;;;6.63;6.05;;;;;;;18.64;100.00;63924.84;5026333;28;20265;-79
2022/07/06 05:00:27;;;;;;;7.57;6.57;;;;;;;18.42;100.00;63910.69;5026899;28;20217;-79
2022/07/06 05:02:54;;;;;;;9.20;7.55;;;;;;;18.37;100.00;63897.19;5029158;28;20237;-82
2022/07/06 05:05:21;;;;;;;8.20;7.45;;;;;;;18.37;100.00;63899.78;5015893;28;20238;-79
2022/07/06 05:07:48;;;;;;;9.52;7.63;;;;;;;18.32;100.00;63897.16;5026854;28;20198;-79
2022/07/06 05:10:16;;;;;;;8.73;7.85;;;;;;;18.28;100.00;63890.91;5026729;28;20268;-78
2022/07/06 05:12:43;;;;;;;10.60;8.10;;;;;;;17.97;100.00;63861.19;5026204;28;20225;-79
2022/07/06 05:15:10;;;;;;;12.35;7.88;;;;;;;17.96;100.00;63859.63;5026864;28;20204;-79
2022/07/06 05:17:39;;;;;;;9.77;8.77;;;;;;;18.09;100.00;63873.16;5025697;28;20210;-80
2022/07/06 05:20:07;;;;;;;9.48;8.57;;;;;;;18.33;100.00;63890.44;5027667;28;20241;-79
2022/07/06 05:22:35;;;;;;;9.38;8.25;;;;;;;18.46;100.00;63906.06;5029899;28;20550;-79
2022/07/06 05:25:02;;;;;;;8.30;7.50;;;;;;;18.55;100.00;63918.03;5030354;28;20234;-82
2022/07/06 05:27:29;;;;;;;10.05;9.05;;;;;;;18.65;100.00;63928.44;5030147;28;20194;-81
2022/07/06 05:29:56;;;;;;;10.00;8.07;;;;;;;18.74;100.00;63935.25;5028235;28;20225;-80
2022/07/06 05:32:23;;;;;;;9.05;8.15;;;;;;;18.87;100.00;63951.91;5026963;28;20280;-81
2022/07/06 05:34:52;;;;;;;10.63;7.43;;;;;;;18.78;100.00;63934.25;5027573;28;20258;-82
2022/07/06 05:37:19;;;;;;;10.55;7.90;;;;;;;18.89;100.00;63953.47;5027189;28;20226;-81
2022/07/06 05:39:47;;;;;;;9.35;7.82;;;;;;;18.93;100.00;63955.56;5027193;28;20217;-81
2022/07/06 05:42:13;;;;;;;9.32;7.82;;;;;;;19.06;100.00;63969.13;5027695;28;20218;-81
2022/07/06 05:44:41;;;;;;;8.45;7.65;;;;;;;19.15;100.00;63981.09;5028240;28;20233;-80
2022/07/06 05:52:38;;;;;;;10.55;7.13;;;;;;;19.29;100.00;63997.75;5027825;28;20521;-80
2022/07/06 05:55:06;;;;;;;8.05;7.38;;;;;;;19.43;100.00;64012.38;5027115;28;20198;-81
2022/07/06 05:57:33;;;;;;;8.10;7.25;;;;;;;19.53;100.00;64020.72;5027817;28;20212;-82
2022/07/06 06:00:04;;;;;;;9.60;8.50;;;;;;;19.17;100.00;63987.81;5027831;28;20205;-81
2022/07/06 06:02:38;;;;;;;10.10;8.40;;;;;;;19.23;100.00;63989.44;5027878;28;20201;-80
2022/07/06 06:05:08;;;;;;;9.63;8.63;;;;;;;19.26;100.00;63989.97;5027707;28;20253;-81
2022/07/06 06:07:37;;;;;;;8.45;7.65;;;;;;;19.07;100.00;63972.75;5027770;28;20200;-81
2022/07/06 06:10:05;;;;;;;9.52;8.07;;;;;;;19.34;100.00;64000.94;5027420;28;20198;-82
2022/07/06 06:12:32;;;;;;;7.80;7.00;;;;;;;19.59;100.00;64023.38;5028458;28;20198;-82
2022/07/06 06:14:59;;;;;;;13.90;8.13;;;;;;;19.64;100.00;64031.19;5028343;28;20221;-82
2022/07/06 06:17:26;;;;;;;7.63;6.82;;;;;;;19.55;100.00;64022.81;5028600;28;20216;-82
2022/07/06 06:19:53;;;;;;;11.90;8.20;;;;;;;19.50;100.00;64017.59;5028558;28;20206;-83
2022/07/06 06:22:22;;;;;;;8.15;7.43;;;;;;;19.40;100.00;64004.59;5028702;28;20464;-82
2022/07/06 06:24:49;;;;;;;8.30;7.15;;;;;;;19.60;100.00;64030.09;5028250;28;20547;-83
2022/07/06 06:27:16;;;;;;;9.90;7.35;;;;;;;19.46;100.00;64013.44;5028641;28;20221;-83
2022/07/06 06:29:44;;;;;;;7.65;6.95;;;;;;;19.53;100.00;64020.22;5029283;28;20217;-84
2022/07/06 06:32:12;;;;;;;12.00;7.70;;;;;;;19.83;100.00;64053.59;5029881;28;20276;-82
2022/07/06 06:34:46;;;;;;;8.15;7.05;;;;;;;20.00;100.00;64068.72;5029034;28;20193;-84
2022/07/06 06:37:13;;;;;;;10.32;7.55;;;;;;;19.69;100.00;64036.41;5029671;28;20217;-83
2022/07/06 06:39:41;;;;;;;10.73;7.85;;;;;;;19.64;100.00;64033.75;5031318;28;20198;-84
2022/07/06 06:42:08;;;;;;;8.48;7.47;;;;;;;19.93;100.00;64061.44;5035241;28;20232;-84
2022/07/06 06:44:35;;;;;;;10.48;8.05;;;;;;;19.83;100.00;64054.09;5034613;28;20249;-83
2022/07/06 06:47:02;;;;;;;11.45;7.70;;;;;;;19.62;100.00;64029.63;5035868;28;20214;-84
2022/07/06 06:49:29;;;;;;;17.15;8.50;;;;;;;19.21;100.00;63986.81;5035482;28;20194;-85
2022/07/06 06:51:56;;;;;;;10.20;8.55;;;;;;;19.30;100.00;63996.75;5035893;28;20245;-84
2022/07/06 06:54:23;;;;;;;10.02;8.45;;;;;;;19.47;100.00;64016.53;5029626;28;20394;-84
2022/07/06 06:56:51;;;;;;;14.00;8.95;;;;;;;19.56;100.00;64023.34;5028550;28;20264;-85
2022/07/06 06:59:19;;;;;;;10.10;8.93;;;;;;;19.67;100.00;64032.25;5028301;28;20241;-85
2022/07/06 07:01:46;;;;;;;12.70;8.88;;;;;;;19.83;100.00;64048.91;5028139;28;20273;-83
2022/07/06 07:04:12;;;;;;;15.18;8.25;;;;;;;20.03;100.00;64071.84;5028234;28;20217;-83
2022/07/06 07:06:40;;;;;;;12.35;9.23;;;;;;;20.16;100.00;64083.38;5028244;28;20238;-84
2022/07/06 07:09:07;;;;;;;15.05;9.43;;;;;;;20.29;100.00;64101.59;5028279;28;20264;-84
2022/07/06 07:11:34;;;;;;;11.20;9.60;;;;;;;20.36;100.00;64109.41;5029127;28;20276;-84
2022/07/06 07:14:03;;;;;;;13.32;8.88;;;;;;;20.60;100.00;64131.88;5028524;28;20198;-84
2022/07/06 07:16:30;;;;;;;9.45;8.25;;;;;;;20.79;100.00;64148.63;5028218;28;20260;-84
2022/07/06 07:18:57;;;;;;;11.77;8.98;;;;;;;20.74;100.00;64146.00;5027799;28;20186;-85
2022/07/06 07:21:25;;;;;;;9.70;8.73;;;;;;;20.79;100.00;64153.78;5027239;28;20209;-84
2022/07/06 07:23:52;;;;;;;11.27;8.25;;;;;;;20.71;100.00;64142.34;5027425;28;20422;-84
2022/07/06 07:26:19;;;;;;;12.15;9.50;;;;;;;20.20;100.00;64090.16;5027398;28;20234;-86
2022/07/06 07:28:46;;;;;;;12.35;10.90;;;;;;;20.27;100.00;64096.91;5027114;28;20269;-84
2022/07/06 07:31:15;;;;;;;11.10;10.00;;;;;;;20.15;100.00;64082.31;5026964;28;20218;-85
2022/07/06 07:33:42;;;;;;;11.80;9.60;;;;;;;20.17;100.00;64087.00;5029350;28;20209;-85
2022/07/06 07:36:09;;;;;;;14.13;9.82;;;;;;;20.16;100.00;64085.44;5027043;28;20340;-84
2022/07/06 07:38:36;;;;;;;11.40;9.80;;;;;;;20.11;100.00;64078.13;5027611;28;20198;-84
2022/07/06 07:41:03;;;;;;;12.95;11.63;;;;;;;20.42;100.00;64109.97;5027650;28;20214;-84
2022/07/06 07:43:30;;;;;;;12.43;10.90;;;;;;;20.25;100.00;64095.34;5033642;28;20190;-85
2022/07/06 07:45:57;;;;;;;12.68;10.15;;;;;;;20.49;100.00;64125.59;5034134;28;20230;-84
2022/07/06 07:48:27;;;;;;;12.52;10.77;;;;;;;20.65;100.00;64139.19;5032890;28;20258;-86
2022/07/06 07:50:53;;;;;;;15.40;10.52;;;;;;;20.57;100.00;64125.66;5031370;28;20544;-86
2022/07/06 07:53:21;;;;;;;12.05;10.73;;;;;;;21.00;100.00;64170.03;5030364;28;20524;-85
2022/07/06 07:55:48;;;;;;;14.52;11.02;;;;;;;21.43;100.00;64220.63;5030365;28;20256;-85
2022/07/06 07:58:15;;;;;;;16.63;10.73;;;;;;;21.64;100.00;64236.88;5030498;28;20197;-87
2022/07/06 08:00:43;;;;;;;13.38;10.70;;;;;;;21.73;100.00;64246.28;5030890;28;20241;-85
2022/07/06 08:03:10;;;;;;;13.02;9.68;;;;;;;21.65;100.00;64235.31;5031613;28;20210;-86
2022/07/06 08:05:38;;;;;;;13.50;10.57;;;;;;;21.43;100.00;64214.94;5032628;28;20249;-86
2022/07/06 08:08:06;;;;;;;11.02;9.93;;;;;;;21.87;100.00;64260.94;5035170;28;20250;-86
2022/07/06 08:10:35;;;;;;;15.65;10.70;;;;;;;21.61;100.00;64241.50;5032140;28;20245;-86
2022/07/06 08:13:02;;;;;;;13.40;10.85;;;;;;;21.13;100.00;64189.31;5031172;28;20243;-85
2022/07/06 08:15:31;;;;;;;11.50;10.30;;;;;;;21.27;100.00;64200.81;5031492;28;20210;-85
2022/07/06 08:17:57;;;;;;;11.63;10.50;;;;;;;21.49;100.00;64223.78;5031316;28;20252;-86
2022/07/06 08:20:25;;;;;;;11.73;10.52;;;;;;;21.62;100.00;64237.91;5031053;28;20214;-84
2022/07/06 08:22:53;;;;;;;10.57;9.57;;;;;;;21.54;100.00;64231.59;5030305;28;20201;-84
2022/07/06 08:25:20;;;;;;;10.68;9.35;;;;;;;21.53;100.00;64225.91;5028841;28;20236;-85
2022/07/06 08:27:48;;;;;;;12.43;10.20;;;;;;;21.30;100.00;64199.28;5029697;28;20194;-84
2022/07/06 08:30:15;;;;;;;10.90;9.60;;;;;;;21.31;100.00;64202.91;5029512;28;20413;-86
2022/07/06 08:32:43;;;;;;;12.98;9.98;;;;;;;20.98;100.00;64173.66;5029488;28;20202;-84
2022/07/06 08:35:11;;;;;;;13.15;9.45;;;;;;;21.34;100.00;64210.72;5030088;28;20264;-82
2022/07/06 08:37:39;;;;;;;11.50;10.35;;;;;;;21.27;100.00;64200.81;5030623;28;20225;-88
2022/07/06 08:40:08;;;;;;;9.98;9.07;;;;;;;21.75;100.00;64250.97;5030913;28;20261;-85
2022/07/06 08:42:36;;;;;;;12.55;9.20;;;;;;;21.03;100.00;64176.28;5030623;28;20222;-86
2022/07/06 08:45:07;;;;;;;12.75;8.55;;;;;;;21.43;100.00;64220.13;5030536;28;20305;-84
2022/07/06 08:47:37;;;;;;;9.88;8.75;;;;;;;21.92;100.00;64266.16;5032307;28;20186;-85
2022/07/06 08:50:05;;;;;;;12.65;9.15;;;;;;;22.07;99.13;64281.31;5036528;28;20198;-86
2022/07/06 08:52:32;;;;;;;9.40;8.65;;;;;;;21.98;98.77;64275.03;5035992;28;20194;-83
2022/07/06 08:55:00;;;;;;;16.88;8.57;;;;;;;21.94;99.77;64268.25;5035653;28;20209;-84
2022/07/06 08:57:29;;;;;;;12.63;9.50;;;;;;;22.42;98.06;64317.88;5036150;28;20205;-85
2022/07/06 08:59:57;;;;;;;11.07;9.35;;;;;;;22.32;96.12;64305.34;5036461;28;20232;-85
2022/07/06 09:02:26;;;;;;;9.13;8.27;;;;;;;22.77;92.77;64360.22;5032744;28;20233;-84
2022/07/06 09:04:57;;;;;;;10.15;8.95;;;;;;;22.63;90.91;64345.03;5034522;28;20194;-83
2022/07/06 09:07:25;;;;;;;10.55;9.55;;;;;;;22.02;96.23;64281.78;5032468;28;20269;-85
2022/07/06 09:09:54;;;;;;;10.55;9.40;;;;;;;22.24;98.88;64304.78;5033910;28;20183;-84
2022/07/06 09:12:22;;;;;;;9.40;8.35;;;;;;;22.40;97.65;64313.22;5032367;28;20218;-86
2022/07/06 09:14:52;;;;;;;10.48;9.27;;;;;;;22.63;93.80;64339.84;5036034;28;20271;-86
2022/07/06 09:17:19;;;;;;;9.95;8.95;;;;;;;22.83;92.54;64365.97;5033320;28;20268;-85
2022/07/06 09:19:47;;;;;;;9.30;8.48;;;;;;;22.75;91.17;64355.00;5032628;28;20220;-85
2022/07/06 09:22:27;;;;;;;10.85;8.63;;;;;;;23.16;93.28;64397.38;5033535;28;20218;-84
2022/07/06 09:24:54;;;;;;;9.32;8.38;;;;;;;23.43;90.94;64428.22;5031647;28;20525;-85
2022/07/06 09:27:23;;;;;;;8.63;7.82;;;;;;;23.75;88.28;64457.03;5031219;28;20218;-85
2022/07/06 09:29:51;;;;;;;9.70;8.50;;;;;;;23.21;88.27;64400.00;5029993;28;20200;-85
2022/07/06 09:32:22;;;;;;;8.63;7.90;;;;;;;23.73;86.72;64459.59;5030005;28;20249;-86
2022/07/06 09:34:49;;;;;;;8.25;7.45;;;;;;;23.00;91.00;64381.16;5031226;28;20225;-86
2022/07/06 09:37:25;;;;;;;9.15;8.25;;;;;;;23.05;92.15;64385.84;5030060;28;20228;-86
2022/07/06 09:39:52;;;;;;;8.65;7.82;;;;;;;22.64;92.11;64341.41;5030908;28;20209;-84
2022/07/06 09:42:26;;;;;;;10.35;9.35;;;;;;;22.83;90.10;64365.97;5031680;28;20382;-85
2022/07/06 09:44:54;;;;;;;11.18;8.90;;;;;;;23.42;89.82;64427.69;5031603;28;20197;-85
2022/07/06 09:47:21;;;;;;;8.65;7.85;;;;;;;22.90;89.36;64368.06;5030238;28;20277;-84
2022/07/06 09:49:50;;;;;;;11.35;8.27;;;;;;;23.08;92.68;64388.97;5030017;28;20210;-83
2022/07/06 09:52:17;;;;;;;10.50;9.43;;;;;;;22.93;91.19;64373.81;5030547;28;20229;-86
2022/07/06 09:54:44;;;;;;;10.50;9.50;;;;;;;23.16;90.37;64395.28;5031230;28;20210;-87
2022/07/06 09:57:12;;;;;;;11.52;8.60;;;;;;;22.96;92.64;64376.97;5032836;28;20233;-85
2022/07/06 09:59:39;;;;;;;11.65;9.73;;;;;;;22.56;93.24;64335.66;5032233;28;20225;-84
2022/07/06 10:02:09;;;;;;;11.65;8.90;;;;;;;22.92;93.68;64374.84;5035019;28;20224;-84
2022/07/06 10:04:36;;;;;;;11.82;10.13;;;;;;;23.29;92.82;64410.97;5035120;28;20196;-87
2022/07/06 10:07:05;;;;;;;11.50;9.15;;;;;;;23.00;95.51;64378.56;5032971;28;20230;-86
2022/07/06 10:09:33;;;;;;;10.85;9.82;;;;;;;23.37;90.78;64425.06;5037128;28;20194;-86
2022/07/06 10:12:02;;;;;;;10.27;9.27;;;;;;;23.58;89.11;64443.91;5036715;28;20216;-87
2022/07/06 10:14:31;;;;;;;14.38;12.02;;;;;;;23.52;89.30;64435.53;5034710;28;20266;-85
2022/07/06 10:16:59;;;;;;;11.93;10.50;;;;;;;23.87;88.09;64472.19;5030120;28;20223;-86
2022/07/06 10:19:30;;;;;;;11.57;10.38;;;;;;;23.24;88.76;64405.72;5029739;28;20190;-84
2022/07/06 10:22:01;;;;;;;12.40;11.18;;;;;;;23.39;90.13;64424.56;5032189;28;20273;-87
2022/07/06 10:24:29;;;;;;;11.40;10.20;;;;;;;22.99;91.93;64382.69;5029884;28;20194;-82
2022/07/06 10:27:01;;;;;;;13.18;10.13;;;;;;;22.61;93.20;64340.88;5028942;28;20300;-85
2022/07/06 10:29:29;;;;;;;11.98;10.80;;;;;;;22.92;91.42;64377.97;5032776;28;20222;-84
2022/07/06 10:31:57;;;;;;;12.23;11.13;;;;;;;22.68;93.47;64350.28;5032434;28;20241;-86
2022/07/06 10:34:24;;;;;;;12.93;11.52;;;;;;;23.37;88.30;64419.84;5031471;28;20257;-86
2022/07/06 10:36:55;;;;;;;12.25;11.05;;;;;;;23.19;91.14;64403.63;5029677;28;20234;-85
2022/07/06 10:42:44;;;;;;;11.85;10.65;;;;;;;23.66;90.30;64452.28;5030401;28;20221;-84
2022/07/06 10:45:13;;;;;;;13.90;11.25;;;;;;;23.05;88.38;64386.38;5029381;28;20209;-86
2022/07/06 10:47:43;;;;;;;12.20;11.00;;;;;;;23.13;89.86;64394.22;5031746;28;20247;-85
2022/07/06 10:50:12;;;;;;;11.80;10.60;;;;;;;22.86;90.08;64371.69;5031866;28;20282;-87
2022/07/06 10:53:01;;;;;;;16.50;12.90;;;;;;;23.07;93.66;64387.94;5030062;28;20194;-86
2022/07/06 10:55:33;;;;;;;12.15;10.98;;;;;;;23.06;91.16;64387.41;5032390;28;20249;-85
2022/07/06 10:58:02;;;;;;;12.65;11.35;;;;;;;22.77;91.69;64354.50;5029797;28;20206;-86
2022/07/06 11:00:50;;;;;;;16.17;12.13;;;;;;;22.68;92.45;64353.41;5029977;28;20214;-85
2022/07/06 11:03:32;;;;;;;12.00;10.73;;;;;;;22.92;91.48;64377.97;5031544;28;20186;-86
2022/07/06 11:06:05;;;;;;;12.98;11.27;;;;;;;23.08;91.32;64383.78;5028940;28;20245;-86
2022/07/06 11:08:52;;;;;;;15.90;10.85;;;;;;;23.46;88.17;64429.28;5034651;28;20238;-86
2022/07/06 11:11:22;;;;;;;11.20;9.77;;;;;;;23.72;86.67;64461.16;5033844;28;20224;-87
2022/07/06 11:14:03;;;;;;;10.68;9.50;;;;;;;23.37;85.24;64419.34;5029709;28;20511;-87
2022/07/06 11:19:27;;;;;;;13.00;11.70;;;;;;;23.37;86.70;64419.84;5040212;28;20178;-86
2022/07/06 11:21:58;;;;;;;12.18;11.07;;;;;;;23.61;85.98;64447.56;5034526;28;20248;-84
2022/07/06 11:24:44;;;;;;;12.18;10.98;;;;;;;23.65;88.39;64449.16;5036370;28;20190;-85
2022/07/06 11:27:23;;;;;;;11.13;10.13;;;;;;;23.89;81.55;64473.75;5039223;28;20586;-87
2022/07/06 11:29:51;;;;;;;12.35;9.82;;;;;;;23.93;80.63;64475.34;5036993;28;20256;-86
2022/07/06 11:32:41;;;;;;;23.48;11.65;;;;;;;24.11;80.85;64498.88;5035055;28;20214;-85
2022/07/06 11:35:34;;;;;;;12.65;11.40;;;;;;;24.28;81.74;64514.06;5037999;28;20201;-86